AirNav   Everest Fuels
 
 1295 users online  

63MI Providence Hospital Heliport
Novi, Michigan, USA

GOING TO NOVI?


FAA INFORMATION EFFECTIVE 30 JANUARY 2020

Location

FAA Identifier: 63MI
Lat/Long: 42-29-10.4000N 083-31-12.2600W
42-29.173333N 083-31.204333W
42.4862222,-83.5200722
(estimated)
Elevation: 970 ft. / 296 m (estimated)
From city: 2 miles SE of NOVI, MI
Time zone: UTC -5 (UTC -4 during Daylight Saving Time)
Zip code: 48374

Heliport Operations

Heliport use: Private use, MEDICAL USE.
Activation date: 03/2007
Control tower: no
ARTCC: CLEVELAND CENTER
FSS: LANSING FLIGHT SERVICE STATION
Attendance: UNATNDD
Segmented circle: no
Lights: FOR PERIMETER LGTS CALL THE ER AT 248-465-4210.

Heliport Communications

WX ASOS at PTK (12 nm N): 125.025 (248-886-8551)
WX ASOS at YIP (15 nm S): 132.35 (734-961-6843)
WX AWOS-3 at VLL (16 nm E): 119.475 (248-288-4649)
WX ASOS at DTW (18 nm SE): 133.675 (734-955-5015)
WX ASOS at ARB (19 nm SW): 134.55 (734-668-7173)

Nearby radio navigation aids

VOR radial/distance  VOR name  Freq  Var
SVMr038/5.7SALEM VORTAC114.3003W
DXOr343/17.7DETROIT VOR/DME113.4006W
CRLr357/26.4CARLETON VOR/DME115.7003W
FNTr167/30.5FLINT VORTAC116.9006W
YQGr301/33.8WINDSOR VOR/DME113.8006W

 
NDB name  Hdg/Dist  Freq  Var  ID
GROSSE ILE332/28.341907WRYS .-. -.-- ...
TECUMSEH037/31.623906WTCU - -.-. ..-

Heliport Services

Runway Information

Helipad H1

Dimensions: 50 x 50 ft. / 15 x 15 m
Surface: concrete
Runway edge lights: PERI
Latitude: 42-29.173333N
Longitude: 083-31.204333W
Elevation: 970.0 ft.
Traffic pattern: leftleft

Heliport Ownership and Management from official FAA records

Ownership: Privately-owned
Owner: PROVIDENCE HOSPITAL & MEDICAL CTR
47601 GRAND RIVER AVE STE A-208
NOVI, MI 48375
Phone 248-465-4173
Manager: CAROL GLICK
47601 GRAND RIVER AVE STE A-208
NOVI, MI 48375
Phone 248-465-4173

Additional Remarks

FOR CD CTC DETROIT APCH AT 800-499-8181.

Instrument Procedures

There are no published instrument procedures at 63MI.

Some nearby airports with instrument procedures:

Y47 - Oakland Southwest Airport (5 nm W)
1D2 - Canton-Plymouth-Mettetal Airport (9 nm S)
KPTK - Oakland County International Airport (12 nm N)
KYIP - Willow Run Airport (15 nm S)
KVLL - Oakland/Troy Airport (16 nm E)
KDTW - Detroit Metropolitan Wayne County Airport (18 nm SE)
KARB - Ann Arbor Municipal Airport (19 nm SW)
 
Loc | Ops | Rwys | IFR | FBO | Links
Com | Nav | Svcs | Stats | Notes
Area around 63MI (Providence Hospital Heliport)
 
Road maps at: MapQuest Bing Google
 
Aerial photo
No photo
 
Sectional chart

 
Airport distance calculator
Flying to Providence Hospital Heliport? Find the distance to fly.

From to 63MI

Sunrise and sunset
Times for 19-Feb-2020
 Local
(UTC-5)
 Zulu
(UTC)
Morning civil twilight06:5711:57
Sunrise07:2612:26
Sunset18:1023:10
Evening civil twilight18:3923:39

Current date and time
Zulu (UTC)  19-Feb-2020 14:42:27
Local (UTC-5)  19-Feb-2020 09:42:27
 
METAR
KPTK 
12nm NE 
191353Z 31012KT 10SM CLR M07/M15 A3045 RMK AO2 SLP327 T10721150
KYIP 
15nm S 
191353Z 33013G19KT 10SM CLR M05/M13 A3050 RMK AO2 SLP335 T10501133
KVLL 
16nm E 
191416Z AUTO 31011G15KT 10SM CLR M06/M13 A3051 RMK AO2 T10601131
KDTW 
17nm SE 
191353Z 31012KT 10SM FEW030 FEW220 M06/M13 A3049 RMK AO2 SLP336 T10561133
KARB 
19nm SW 
734-668-7173
191353Z 35011G17KT 10SM CLR M06/M14 A3049 RMK AO2 SLP337 T10611139
KOZW 
21nm W 
191415Z AUTO 30009KT 10SM CLR M07/M14 A3049 RMK AO2 T10721141
KDET 
23nm E 
191353Z 30008G17KT 10SM CLR M05/M13 A3048 RMK AO2 SLP332 T10501128
TAF
KPTK 
12nm NE 
191135Z 1912/2012 30013KT P6SM SCT040 FM200100 33007KT P6SM BKN100 OVC250
KYIP 
15nm S 
190535Z 1906/2006 28009KT P6SM SKC FM190700 29010KT P6SM SCT028 BKN035 FM191200 28010KT P6SM SKC FM200000 27008KT P6SM SCT100 BKN250
KDTW 
17nm SE 
191404Z 1914/2018 31013KT P6SM SKC FM192000 31010KT P6SM FEW035 FM200200 31007KT P6SM BKN090 BKN200 FM201300 33005KT P6SM SCT030 BKN200
NOTAMs
Click for the latest NOTAMs
NOTAMs are issued by the DoD/FAA and will open in a separate window not controlled by AirNav.

 

 
 

Would you like to see your business listed on this page?

 If your business provides an interesting product or service to pilots, flight crews, aircraft, or users of the Providence Hospital Heliport, you should consider listing it here.  To start the listing process, click on the button below
 
Add a business
 

Other Pages about Providence Hospital Heliport

Update a link
 
Copyright © AirNav, LLC. All rights reserved. Privacy Policy  Contact